Weather observations for the past three days for
Duluth - Sky Harbor Airport
Imperial (Metric)
Date Time (cdt) Wind (mph) Vis. (mi.) Weather Sky Cond. Temperature (ºF) Relative Humidity Wind Chill (°F) Heat Index (°F) Pressure Precipitation (in)
Air Dwpt 6 hour altimeter (in) sea level (mb) 1 hr 3 hr 6 hr
Max. Min.
05 17:55 W 16 G 22 10.00 Overcast OVC050 44.6 24.8 46% 38 29.82 0.0
05 17:35 W 18 10.00 Overcast OVC050 46.4 23 40% 40 29.82 0.0
05 17:15 NW 15 G 22 10.00 Overcast OVC050 44.6 23 43% 38 29.81 0.0
05 16:55 W 18 10.00 Overcast OVC050 44.6 24.8 46% 37 29.81 0.0
05 16:35 NW 15 G 25 10.00 Overcast OVC050 44.6 23 43% 38 29.81 0.0
05 16:15 NW 20 10.00 Overcast OVC050 44.6 24.8 46% 37 29.81 0.0
05 15:55 W 23 10.00 Overcast and Breezy OVC049 44.6 24.8 46% 37 29.81 0.0
05 15:35 NW 17 10.00 Overcast OVC050 44.6 24.8 46% 38 29.81 0.0
05 15:15 NW 17 G 28 10.00 Overcast BKN050 OVC055 42.8 24.8 49% 35 29.81 0.0
05 14:55 W 17 G 26 10.00 Overcast OVC050 44.6 24.8 46% 38 29.81 0.0
05 14:35 NW 21 10.00 Overcast and Breezy BKN050 OVC055 44.6 24.8 46% 37 29.81 0.0
05 14:15 NW 18 10.00 Overcast OVC049 42.8 23 46% 35 29.81 0.0
05 13:55 W 14 G 22 10.00 Overcast OVC049 42.8 23 46% 36 29.81 0.0
05 13:35 NW 16 G 25 10.00 Overcast OVC050 42.8 23 46% 36 29.8 0.0
05 13:15 NW 18 G 28 10.00 Overcast BKN048 OVC055 42.8 23 46% 35 29.8 0.0
05 12:55 W 20 10.00 Overcast BKN048 OVC055 42.8 23 46% 35 29.8 0.0
05 12:35 NW 20 G 29 10.00 Overcast OVC050 42.8 23 46% 35 29.8 0.0
05 12:15 NW 16 G 23 10.00 Overcast BKN048 OVC055 41 23 49% 33 29.8 0.0
05 11:55 NW 21 10.00 Overcast and Breezy OVC046 41 23 49% 32 29.79 0.0
05 11:35 W 18 G 25 10.00 Overcast BKN044 OVC050 39.2 23 52% 31 29.8 0.0
05 11:15 NW 21 10.00 Overcast and Breezy OVC045 39.2 21.2 48% 30 29.79 0.0
05 10:55 NW 16 G 23 10.00 Overcast BKN044 OVC050 37.4 21.2 52% 29 29.79 0.0
05 10:35 NW 17 G 23 10.00 Overcast BKN044 OVC050 37.4 23 56% 29 29.79 0.0
05 10:15 NW 18 G 24 10.00 Overcast OVC044 37.4 21.2 52% 28 29.78 0.0
05 09:55 NW 18 10.00 Overcast BKN044 OVC050 37.4 21.2 52% 28 29.78 0.0
05 09:35 NW 21 G 26 10.00 Overcast and Breezy SCT042 OVC050 37.4 19.4 48% 28 29.77 0.0
05 09:15 NW 17 G 23 9.00 Light Snow BKN043 OVC050 37.4 21.2 52% 29 29.77 0.0
05 08:55 NW 22 G 28 10.00 Overcast and Breezy BKN048 OVC055 37.4 21.2 52% 27 29.76 0.0
05 08:35 NW 18 10.00 Mostly Cloudy FEW043 BKN050 BKN055 37.4 21.2 52% 28 29.75 0.0
05 08:15 NW 17 G 26 10.00 Mostly Cloudy BKN070 37.4 23 56% 29 29.75 0.0
05 07:55 NW 17 10.00 Overcast FEW038 OVC075 37.4 23 56% 29 29.74 0.0
05 07:35 NW 17 G 24 10.00 Mostly Cloudy SCT037 BKN075 37.4 23 56% 29 29.74 0.0
05 07:15 NW 15 G 24 10.00 Overcast OVC036 37.4 23 56% 29 29.73 0.0
05 06:55 NW 17 10.00 Mostly Cloudy BKN034 35.6 24.8 65% 26 29.72 0.0
05 06:35 W 14 G 20 10.00 Partly Cloudy SCT034 35.6 24.8 65% 27 29.72 0.0
05 06:15 W 15 G 22 10.00 Mostly Cloudy BKN035 35.6 24.8 65% 27 29.71 0.0
05 05:55 W 17 10.00 A Few Clouds FEW037 35.6 26.6 70% 26 29.7 0.0
05 05:35 W 15 G 25 10.00 A Few Clouds FEW039 35.6 26.6 70% 27 29.69 0.0
05 05:15 NW 21 10.00 Partly Cloudy and Breezy SCT040 35.6 26.6 70% 25 29.69 0.0
05 04:55 W 21 10.00 Partly Cloudy and Breezy SCT047 35.6 26.6 70% 25 29.68 0.0
05 04:35 NW 23 G 30 10.00 Overcast and Breezy SCT038 OVC047 37.4 28.4 70% 27 29.68 0.0
05 04:15 W 13 G 20 9.00 Light Rain FEW026 BKN034 OVC041 37.4 30.2 75% 30 29.67 0.0
05 03:55 NW 20 G 26 10.00 Overcast BKN032 OVC048 39.2 30.2 70% 30 29.66 0.0
05 03:35 W 14 10.00 Partly Cloudy FEW034 SCT047 37.4 32 81% 30 29.65 0.0
05 03:15 W 10 10.00 Partly Cloudy SCT050 37.4 32 81% 31 29.65 0.0
05 02:55 NW 15 G 21 10.00 Mostly Cloudy SCT037 BKN048 39.2 32 75% 31 29.65 0.0
05 02:35 NW 18 G 25 10.00 Overcast BKN036 BKN045 OVC055 41 30.2 66% 33 29.65 0.0
05 02:15 W 16 10.00 Partly Cloudy FEW037 SCT060 41 30.2 66% 33 29.64 0.0
05 01:55 W 14 G 21 10.00 Fair CLR 41 30.2 66% 34 29.64 0.0
05 01:35 W 15 10.00 A Few Clouds FEW070 41 28.4 61% 34 29.64 0.0
05 01:15 NW 16 10.00 Mostly Cloudy FEW060 BKN070 41 28.4 61% 33 29.64 0.0
05 00:55 NW 13 10.00 Overcast BKN060 OVC075 41 28.4 61% 34 29.64 0.0
05 00:35 N 6 10.00 Overcast FEW060 SCT065 OVC075 41 32 70% 38 29.64 0.0
05 00:15 NW 12 G 18 10.00 Overcast FEW043 BKN055 OVC075 42.8 26.6 53% 37 29.63 0.0
04 23:55 W 13 10.00 Mostly Cloudy FEW050 BKN060 BKN070 44.6 26.6 49% 39 29.63 0.0
04 23:35 W 14 10.00 Mostly Cloudy BKN070 44.6 26.6 49% 39 29.62 0.0
04 23:15 W 16 10.00 Overcast OVC070 44.6 26.6 49% 38 29.62 0.0
04 22:55 W 16 10.00 Overcast FEW045 FEW065 OVC075 44.6 26.6 49% 38 29.62 0.0
04 22:35 W 17 G 24 10.00 Overcast FEW065 OVC075 46.4 24.8 43% 40 29.62 0.0
04 22:15 W 23 10.00 Overcast and Breezy OVC075 46.4 24.8 43% 39 29.61 0.0
04 21:55 W 14 G 20 10.00 Overcast OVC075 46.4 24.8 43% 41 29.61 0.0
04 21:35 W 16 10.00 Overcast SCT070 OVC080 46.4 24.8 43% 40 29.61 0.0
04 21:15 W 16 10.00 Overcast FEW065 OVC075 46.4 24.8 43% 40 29.6 0.0
04 20:55 W 21 10.00 Overcast and Breezy SCT070 OVC080 46.4 24.8 43% 39 29.59 0.0
04 20:35 W 17 10.00 Overcast SCT070 OVC080 46.4 23 40% 40 29.58 0.0
04 20:15 W 24 G 32 10.00 Overcast and Breezy FEW065 OVC075 46.4 24.8 43% 39 29.58 0.0
04 19:55 W 21 G 28 10.00 Overcast and Breezy OVC075 46.4 24.8 43% 39 29.57 0.0
04 19:35 W 23 10.00 Overcast and Breezy OVC075 48.2 24.8 40% 41 29.57 0.0
04 19:15 W 20 G 28 10.00 Overcast BKN065 OVC075 48.2 26.6 43% 42 29.56 0.0
04 18:55 W 25 10.00 Mostly Cloudy and Breezy BKN060 48.2 26.6 43% 41 29.56 0.0
04 18:35 W 21 G 30 10.00 Overcast and Breezy OVC060 48.2 28.4 46% 42 29.57 0.0
04 18:15 W 24 G 32 10.00 Overcast and Breezy OVC060 48.2 28.4 46% 41 29.56 0.0
04 17:55 W 24 G 30 10.00 Overcast and Breezy OVC060 48.2 30.2 50% 41 29.55 0.0
04 17:35 W 25 G 33 10.00 Overcast and Breezy SCT050 OVC060 48.2 28.4 46% 41 29.55 0.0
04 17:15 W 26 10.00 Overcast and Windy BKN050 OVC065 48.2 30.2 50% 41 29.54 0.0
04 16:55 W 26 G 36 10.00 Overcast and Windy BKN050 OVC065 50 30.2 47% 43 29.52 0.0
04 16:35 W 21 10.00 Overcast and Breezy BKN050 OVC070 50 30.2 47% 44 29.51 0.0
04 16:15 W 24 10.00 Overcast and Breezy FEW050 BKN060 OVC070 50 30.2 47% 43 29.5 0.0
04 15:55 W 25 G 36 10.00 Overcast and Breezy BKN060 OVC070 50 32 50% 43 29.5 0.0
04 15:35 W 23 G 30 10.00 Overcast and Breezy BKN060 OVC070 50 30.2 47% 44 29.49 0.0
04 15:15 W 25 G 32 10.00 Overcast and Breezy BKN060 OVC070 51.8 30.2 44% 29.49 0.0
04 14:55 NW 25 G 32 10.00 Overcast and Breezy OVC060 51.8 30.2 44% 29.48 0.0
04 14:35 W 30 G 38 10.00 Mostly Cloudy and Windy BKN055 BKN065 51.8 30.2 44% 29.47 0.0
04 14:15 W 25 G 36 10.00 Overcast and Breezy FEW050 OVC060 51.8 30.2 44% 29.46 0.0
04 13:55 NW 26 G 35 10.00 Overcast and Windy BKN055 OVC065 53.6 32 44% 29.45 0.0
04 13:35 W 25 G 43 10.00 Mostly Cloudy and Breezy BKN055 BKN060 53.6 30.2 41% 29.44 0.0
04 13:15 W 30 G 36 10.00 Mostly Cloudy and Windy BKN050 BKN060 51.8 33.8 50% 29.43 0.0
04 12:55 NW 24 G 38 10.00 Mostly Cloudy and Breezy FEW048 BKN060 53.6 32 44% 29.42 0.0
04 12:35 W 26 G 33 10.00 Overcast and Windy BKN047 OVC055 51.8 33.8 50% 29.42 0.0
04 12:15 W 24 G 31 10.00 Overcast and Breezy BKN049 OVC060 51.8 33.8 50% 29.41 0.0
04 11:55 W 25 G 33 10.00 Overcast and Breezy BKN048 OVC055 51.8 33.8 50% 29.41 0.0
04 11:35 W 31 G 38 10.00 Overcast and Windy BKN050 OVC060 53.6 33.8 47% 29.39 0.0
04 11:15 W 25 G 38 10.00 Overcast and Breezy SCT048 OVC055 53.6 33.8 47% 29.38 0.0
04 10:55 W 31 G 37 10.00 Overcast and Windy BKN048 OVC055 51.8 33.8 50% 29.38 0.0
04 10:35 W 30 G 38 10.00 Overcast and Windy OVC050 53.6 33.8 47% 29.36 0.0
04 10:15 NW 32 G 38 10.00 Overcast and Windy BKN050 OVC055 53.6 33.8 47% 29.35 0.0
04 09:55 W 29 G 38 10.00 Overcast and Windy BKN050 OVC055 53.6 35.6 51% 29.34 0.0
04 09:35 W 30 G 37 10.00 Overcast and Windy SCT047 OVC055 53.6 35.6 51% 29.34 0.0
04 09:15 W 25 G 32 10.00 Mostly Cloudy and Breezy SCT044 BKN050 BKN055 53.6 39.2 58% 29.33 0.0
04 08:55 W 29 G 35 10.00 Overcast and Windy BKN043 OVC049 53.6 39.2 58% 29.32 0.0
04 08:35 W 35 10.00 Mostly Cloudy and Windy SCT042 SCT049 BKN110 53.6 39.2 58% 29.31 0.0
04 08:15 W 15 G 21 10.00 Mostly Cloudy FEW037 FEW080 BKN110 53.6 41 63% 29.3 0.0
04 07:55 W 15 G 21 10.00 Overcast FEW039 OVC100 53.6 41 63% 29.29 0.0
04 07:35 W 25 G 39 10.00 Overcast and Breezy FEW039 BKN060 OVC095 53.6 41 63% 29.3 0.0
04 07:15 W 17 10.00 Overcast OVC060 55.4 41 59% 29.29 0.0
04 06:55 W 16 G 23 10.00 Mostly Cloudy SCT065 BKN120 55.4 41 59% 29.27 0.0
04 06:35 NW 21 G 31 10.00 Partly Cloudy and Breezy SCT120 55.4 41 59% 29.26 0.0
04 06:15 NW 31 10.00 Fair and Windy CLR 55.4 41 59% 29.26 0.0
04 05:55 SW 25 G 37 10.00 Fair and Breezy CLR 60.8 32 34% 29.22 0.0
04 05:35 SW 20 G 25 10.00 A Few Clouds FEW120 60.8 32 34% 29.2 0.0
04 05:15 SW 21 G 26 10.00 Mostly Cloudy and Breezy FEW055 SCT075 BKN110 60.8 32 34% 29.21 0.0
04 04:55 SW 18 G 29 10.00 Overcast BKN075 OVC100 60.8 32 34% 29.21 0.0
04 04:35 SW 20 G 29 10.00 Overcast SCT070 BKN080 OVC100 60.8 32 34% 29.22 0.0
04 04:15 SW 21 G 26 10.00 Mostly Cloudy and Breezy FEW040 SCT065 BKN110 60.8 32 34% 29.23 0.0
04 03:55 SW 24 10.00 Mostly Cloudy and Breezy FEW060 SCT100 BKN120 60.8 32 34% 29.25 0.0
04 03:35 SW 18 G 25 10.00 Mostly Cloudy BKN110 60.8 32 34% 29.26 0.0
04 03:15 SW 20 G 30 10.00 Mostly Cloudy BKN110 60.8 32 34% 29.27 0.0
04 02:58 SW 22 10.00 Partly Cloudy and Breezy FEW048 SCT120 60.8 32 34% 29.29 0.0
04 02:38 SW 21 10.00 A Few Clouds and Breezy FEW046 60.8 32 34% 29.3 0.0
04 02:18 SW 22 10.00 Fair and Breezy CLR 60.8 32 34% 29.32 0.0
04 01:58 SW 15 10.00 Fair CLR 60.8 32 34% 29.34 0.0
04 01:38 SW 17 10.00 Fair CLR 60.8 32 34% 29.35 0.0
04 01:18 SW 17 10.00 Fair CLR 60.8 32 34% 29.36 0.0
04 00:55 SW 17 10.00 Fair CLR 60.8 32 34% 29.38 0.0
04 00:35 SW 17 G 25 10.00 Fair CLR 60.8 30.2 31% 29.39 0.0
04 00:15 SW 20 G 26 10.00 A Few Clouds FEW049 60.8 30.2 31% 29.39 0.0
03 23:55 SW 17 10.00 Partly Cloudy SCT046 SCT050 60.8 30.2 31% 29.41 0.0
03 23:35 SW 15 10.00 Partly Cloudy FEW036 SCT045 SCT050 60.8 30.2 31% 29.43 0.0
03 23:15 S 15 10.00 Partly Cloudy SCT041 SCT049 59 30.2 34% 29.44 0.0
03 22:55 SW 15 10.00 Partly Cloudy FEW035 SCT042 SCT050 60.8 32 34% 29.46 0.0
03 22:35 SW 13 10.00 Mostly Cloudy FEW038 BKN045 BKN055 60.8 32 34% 29.48 0.0
03 22:15 SW 14 10.00 A Few Clouds FEW044 FEW050 60.8 32 34% 29.49 0.0
03 21:55 SW 13 10.00 A Few Clouds FEW043 60.8 32 34% 29.5 0.0
03 21:35 SW 10 10.00 A Few Clouds FEW047 60.8 32 34% 29.51 0.0
03 21:15 SW 12 10.00 Fair CLR 60.8 32 34% 29.52 0.0
03 20:55 SW 10 10.00 Fair CLR 60.8 32 34% 29.53 0.0
03 20:35 SW 8 10.00 Fair CLR 62.6 32 32% 29.54 0.0
03 20:15 SW 6 10.00 Fair CLR 62.6 30.2 30% 29.54 0.0
03 19:55 SW 8 10.00 Fair CLR 64.4 30.2 28% 29.55 0.0
03 19:35 W 8 10.00 Fair CLR 64.4 32 30% 29.56 0.0
03 19:15 W 13 10.00 Fair CLR 64.4 30.2 28% 29.56 0.0
03 18:55 W 12 10.00 Fair CLR 64.4 32 30% 29.56 0.0
03 18:35 W 9 10.00 Fair CLR 64.4 32 30% 29.57 0.0
03 18:15 NW 9 10.00 Fair CLR 66.2 30.2 26% 29.58 0.0
03 17:55 NW 14 G 23 10.00 Fair CLR 64.4 30.2 28% 29.58 0.0
03 17:35 NW 22 10.00 Fair and Breezy CLR 66.2 30.2 26% 29.59 0.0
03 17:15 NW 14 G 21 10.00 Fair CLR 66.2 32 28% 29.58 0.0
03 16:55 NW 17 10.00 Fair CLR 68 32 26% 29.59 0.0
03 16:35 NW 15 G 24 10.00 Fair CLR 66.2 28.4 24% 29.59 0.0
03 16:15 W 17 10.00 Fair CLR 66.2 30.2 26% 29.6 0.0
03 15:55 NW 15 G 23 10.00 Fair CLR 68 26.6 21% 29.6 0.0
03 15:35 NW 16 G 23 10.00 Fair CLR 66.2 28.4 24% 29.61 0.0
03 15:15 NW 16 10.00 Fair CLR 66.2 32 28% 29.62 0.0
03 14:55 W 15 10.00 Fair CLR 66.2 26.6 22% 29.62 0.0
03 14:35 W 13 G 20 10.00 Fair CLR 66.2 26.6 22% 29.63 0.0
03 14:15 NW 15 G 23 10.00 Fair CLR 66.2 24.8 21% 29.64 0.0
03 13:55 NW 13 10.00 Fair CLR 64.4 23 21% 29.64 0.0
03 13:35 NW 16 G 22 10.00 Fair CLR 64.4 21.2 19% 29.64 0.0
03 13:15 NW 20 10.00 Fair CLR 64.4 26.6 24% 29.65 0.0
03 12:55 NW 18 10.00 Fair CLR 64.4 17.6 16% 29.66 0.0
03 12:35 NW 13 10.00 Fair CLR 64.4 19.4 18% 29.66 0.0
03 12:15 NW 18 10.00 Fair CLR 64.4 23 21% 29.66 0.0
03 11:55 W 17 10.00 Fair CLR 62.6 33.8 34% 29.66 0.0
03 11:35 NW 15 10.00 Fair CLR 62.6 33.8 34% 29.66 0.0
03 11:15 NW 21 10.00 Fair and Breezy CLR 60.8 37.4 42% 29.66 0.0
03 10:55 NW 16 G 23 10.00 Fair CLR 62.6 37.4 39% 29.67 0.0
03 10:35 NW 20 10.00 Fair CLR 60.8 39.2 45% 29.66 0.0
03 10:15 NW 13 10.00 Fair CLR 62.6 39.2 42% 29.66 0.0
03 09:55 NW 10 10.00 Fair CLR 60.8 39.2 45% 29.66 0.0
03 09:35 W 7 10.00 Fair CLR 57.2 41 55% 29.66 0.0
03 09:15 Calm 10.00 Fair CLR 55.4 39.2 55% 29.66 0.0
03 08:55 S 7 10.00 Fair CLR 51.8 39.2 62% 29.66 0.0
03 08:35 SW 6 10.00 Fair CLR 48.2 37.4 66% 46 29.67 0.0
03 08:15 SW 5 10.00 Fair CLR 46.4 35.6 66% 45 29.67 0.0
03 07:55 SW 5 10.00 Fair CLR 42.8 35.6 76% 41 29.68 0.0
03 07:35 Calm 10.00 Fair CLR 41 35.6 81% 29.68 0.0
03 07:15 W 5 10.00 Fair CLR 41 33.8 76% 38 29.67 0.0
03 06:55 SW 3 10.00 Fair CLR 39.2 35.6 87% 29.67 0.0
03 06:35 SW 6 10.00 Fair CLR 39.2 35.6 87% 36 29.66 0.0
03 06:15 S 5 10.00 Fair CLR 37.4 35.6 93% 34 29.66 0.0
03 05:55 Calm 10.00 Fair CLR 37.4 33.8 87% 29.66 0.0
03 05:35 Calm 10.00 A Few Clouds FEW045 FEW075 37.4 35.6 93% 29.67 0.0
03 05:15 Calm 10.00 Partly Cloudy FEW047 FEW060 SCT070 37.4 35.6 93% 29.67 0.0
03 04:55 NE 5 10.00 Mostly Cloudy SCT039 SCT050 BKN060 37.4 35.6 93% 34 29.67 0.0
03 04:35 Calm 10.00 Mostly Cloudy FEW039 SCT048 BKN070 39.2 35.6 87% 29.67 0.0
03 04:15 SE 5 10.00 Mostly Cloudy FEW044 BKN050 BKN065 39.2 33.8 81% 36 29.67 0.0
03 03:55 E 5 10.00 Mostly Cloudy SCT040 BKN049 BKN060 39.2 33.8 81% 36 29.67 0.0
03 03:35 E 6 10.00 Mostly Cloudy SCT038 BKN044 BKN050 39.2 33.8 81% 36 29.68 0.0
03 03:15 E 7 10.00 Mostly Cloudy SCT040 BKN048 BKN065 39.2 33.8 81% 35 29.68 0.0
03 02:55 E 6 10.00 Overcast SCT047 SCT080 OVC100 39.2 33.8 81% 36 29.68 0.0
03 02:35 NE 6 10.00 Overcast BKN075 OVC100 39.2 33.8 81% 36 29.69 0.0
03 02:15 NE 6 10.00 Overcast BKN075 OVC085 39.2 33.8 81% 36 29.7 0.0
03 01:55 NE 5 10.00 Overcast BKN070 OVC080 39.2 33.8 81% 36 29.7 0.0
03 01:35 N 5 10.00 Overcast FEW060 BKN070 OVC085 39.2 33.8 81% 36 29.71 0.0
03 01:15 N 5 10.00 Mostly Cloudy FEW050 SCT070 BKN075 39.2 33.8 81% 36 29.72 0.0
03 00:55 Calm 10.00 Overcast FEW050 BKN070 OVC085 41 33.8 76% 29.73 0.0
03 00:35 N 3 10.00 Overcast SCT055 BKN070 OVC080 39.2 35.6 87% 29.74 0.0
03 00:15 N 8 10.00 Overcast BKN055 OVC070 39.2 35.6 87% 34 29.74 0.0
02 23:55 N 10 10.00 Mostly Cloudy FEW040 SCT055 BKN070 41 35.6 81% 35 29.74 0.0
02 23:35 Vrbl 7 G 13 10.00 Light Rain FEW028 SCT040 OVC050 41 37.4 87% 37 29.74 0.0
02 23:15 E 6 8.00 Light Rain FEW004 SCT032 BKN055 41 37.4 87% 38 29.75 0.0
02 22:55 E 8 10.00 Overcast BKN070 OVC075 41 33.8 76% 36 29.76 0.0
02 22:35 E 5 10.00 Overcast FEW055 OVC070 41 32 70% 38 29.77 0.0
02 22:15 Calm 10.00 Overcast BKN055 OVC065 41 33.8 76% 29.78 0.0
02 21:55 Calm 10.00 Overcast BKN060 OVC070 39.2 33.8 81% 29.77 0.0
02 21:35 E 6 10.00 Overcast FEW039 BKN065 OVC075 39.2 33.8 81% 36 29.77 0.0
02 21:15 E 9 10.00 Overcast OVC070 39.2 35.6 87% 34 29.77 0.0
02 20:55 NE 5 G 13 10.00 Mostly Cloudy FEW055 SCT065 BKN075 39.2 35.6 87% 36 29.77 0.0
02 20:35 NE 8 10.00 Overcast SCT070 OVC080 39.2 33.8 81% 34 29.76 0.0
02 20:15 NE 8 10.00 Overcast FEW070 OVC080 39.2 35.6 87% 34 29.76 0.0
02 19:55 NE 12 10.00 Mostly Cloudy BKN080 39.2 35.6 87% 33 29.75 0.0
02 19:35 Vrbl 7 G 15 10.00 Mostly Cloudy BKN085 BKN120 60.8 35.6 39% 29.74 0.0
02 19:15 SW 9 10.00 Overcast SCT090 OVC110 60.8 35.6 39% 29.75 0.0
02 18:55 S 9 10.00 Mostly Cloudy BKN110 62.6 33.8 34% 29.75 0.0
02 18:35 SW 13 10.00 Mostly Cloudy BKN100 BKN120 62.6 32 32% 29.76 0.0
02 18:15 SW 15 10.00 Partly Cloudy SCT120 62.6 32 32% 29.76 0.0
Date Time (cdt) Wind (mph) Vis. (mi.) Weather Sky Cond. Air Dwpt Max. Min. Relative Humidity Wind Chill (°F) Heat Index (°F) altimeter (in) sea level (mb) 1 hr 3 hr 6 hr
6 hour
Temperature (ºF) Pressure Precipitation (in)